Time;durP1;ratioP1;P1;durP2;ratioP2;P2;SDS_P1;SDS_P2;PMS_P1;PMS_P2;Temp;Humidity;BMP_temperature;BMP_pressure;BME280_temperature;BME280_humidity;BME280_pressure;Samples;Min_cycle;Max_cycle;Signal;HPM_P1;HPM_P2
2022/07/31 00:03:26;;;;;;;6.30;2.70;;;;;;;17.83;100.00;101697.00;10452878;28;20053;-75
2022/07/31 00:08:27;;;;;;;5.13;2.13;;;;;;;17.88;100.00;101717.34;10451097;28;20037;-74
2022/07/31 00:13:27;;;;;;;4.13;2.03;;;;;;;17.81;100.00;101705.63;10453000;28;20060;-74
2022/07/31 00:18:28;;;;;;;4.70;2.78;;;;;;;17.86;100.00;101711.22;10469104;28;20037;-74
2022/07/31 00:23:28;;;;;;;3.10;2.40;;;;;;;17.80;100.00;101701.19;10452322;28;20029;-74
2022/07/31 00:28:29;;;;;;;5.15;1.85;;;;;;;17.81;100.00;101708.41;10453380;28;20060;-74
2022/07/31 00:33:29;;;;;;;3.83;2.05;;;;;;;17.54;100.00;101665.03;10460043;28;20037;-75
2022/07/31 00:38:30;;;;;;;6.13;2.13;;;;;;;17.79;100.00;101699.50;10460139;28;20037;-73
2022/07/31 00:43:30;;;;;;;4.50;2.42;;;;;;;17.78;100.00;101708.13;10460865;28;20516;-73
2022/07/31 00:48:31;;;;;;;4.28;2.35;;;;;;;17.79;100.00;101710.63;10442760;28;20029;-75
2022/07/31 00:53:31;;;;;;;3.90;2.22;;;;;;;17.79;100.00;101691.13;10459582;28;20041;-74
2022/07/31 00:58:32;;;;;;;4.68;2.40;;;;;;;17.77;100.00;101696.16;10459212;28;20033;-74
2022/07/31 01:03:32;;;;;;;4.72;2.33;;;;;;;17.71;100.00;101680.56;10458744;28;20052;-74
2022/07/31 01:08:33;;;;;;;6.13;2.58;;;;;;;17.71;100.00;101680.56;10451093;28;20040;-74
2022/07/31 01:13:50;;;;;;;2.55;2.10;;;;;;;17.64;100.00;101664.16;10457241;28;20041;-73
2022/07/31 01:18:51;;;;;;;8.73;2.28;;;;;;;17.72;100.00;101688.66;10443449;28;20048;-74
2022/07/31 01:24:04;;;;;;;3.90;2.80;;;;;;;17.67;100.00;101685.03;10457236;28;20039;-74
2022/07/31 01:29:23;;;;;;;4.80;3.03;;;;;;;17.55;100.00;101677.84;10441710;28;20396;-74
2022/07/31 01:35:06;;;;;;;6.68;3.58;;;;;;;17.44;100.00;101676.19;10459779;28;20049;-73
2022/07/31 01:40:13;;;;;;;5.85;2.78;;;;;;;17.31;100.00;101682.34;10451781;28;20067;-74
2022/07/31 01:45:13;;;;;;;6.32;3.40;;;;;;;17.15;100.00;101668.41;10455763;28;20041;-73
2022/07/31 01:50:14;;;;;;;4.97;3.13;;;;;;;17.05;100.00;101671.25;10441074;28;20036;-73
2022/07/31 01:55:14;;;;;;;4.35;3.03;;;;;;;16.89;100.00;101669.56;10439140;28;20049;-73
2022/07/31 02:00:17;;;;;;;6.22;3.58;;;;;;;16.70;100.00;101656.16;10439859;28;20144;-73
2022/07/31 02:05:18;;;;;;;7.32;3.65;;;;;;;16.57;100.00;101656.69;10455688;28;20033;-73
2022/07/31 02:10:19;;;;;;;6.78;4.03;;;;;;;16.46;100.00;101661.41;10438456;28;20048;-74
2022/07/31 02:15:19;;;;;;;6.25;4.13;;;;;;;16.43;100.00;101666.66;10454752;28;20052;-74
2022/07/31 02:20:19;;;;;;;6.50;3.72;;;;;;;16.41;100.00;101657.78;10438285;28;20076;-74
2022/07/31 02:25:20;;;;;;;5.72;3.90;;;;;;;16.43;100.00;101658.34;10455600;28;20315;-73
2022/07/31 02:30:21;;;;;;;6.03;3.70;;;;;;;16.45;100.00;101645.81;10457036;28;20052;-72
2022/07/31 02:35:21;;;;;;;7.40;3.83;;;;;;;16.54;100.00;101646.13;10454951;28;20037;-73
2022/07/31 02:40:23;;;;;;;5.60;3.80;;;;;;;16.58;100.00;101644.47;10455835;28;20135;-74
2022/07/31 02:45:23;;;;;;;4.97;3.97;;;;;;;16.68;100.00;101644.50;10455105;28;20033;-73
2022/07/31 02:50:24;;;;;;;4.55;3.63;;;;;;;16.76;100.00;101643.09;10452669;28;20037;-73
2022/07/31 02:55:24;;;;;;;5.70;4.00;;;;;;;16.81;100.00;101639.53;10452866;28;20059;-73
2022/07/31 03:00:28;;;;;;;6.72;3.88;;;;;;;16.84;100.00;101627.84;10438223;28;20484;-72
2022/07/31 03:05:30;;;;;;;7.55;4.40;;;;;;;16.84;100.00;101622.28;10456400;28;20041;-73
2022/07/31 03:10:30;;;;;;;6.18;3.92;;;;;;;16.86;100.00;101614.47;10437240;28;20509;-73
2022/07/31 03:15:31;;;;;;;5.32;4.05;;;;;;;16.86;100.00;101615.31;10412385;28;20101;-73
2022/07/31 03:20:31;;;;;;;8.68;4.57;;;;;;;16.88;100.00;101606.69;10413321;28;20045;-74
2022/07/31 03:25:32;;;;;;;4.30;3.90;;;;;;;16.85;100.00;101598.94;10414695;28;20112;-74
2022/07/31 03:30:33;;;;;;;8.93;4.15;;;;;;;16.83;100.00;101598.38;10396274;28;20037;-73
2022/07/31 03:35:33;;;;;;;8.55;4.38;;;;;;;16.80;100.00;101594.16;10421887;28;20076;-73
2022/07/31 03:40:34;;;;;;;7.32;4.55;;;;;;;16.78;100.00;101584.41;10454773;28;20622;-73
2022/07/31 03:45:34;;;;;;;5.93;3.88;;;;;;;16.78;100.00;101592.75;10452883;28;20044;-74
2022/07/31 03:50:38;;;;;;;6.20;3.70;;;;;;;16.79;100.00;101586.09;10452433;28;20048;-74
2022/07/31 03:55:39;;;;;;;7.90;4.35;;;;;;;16.77;100.00;101591.09;10453421;28;20139;-73
2022/07/31 04:00:39;;;;;;;6.07;4.18;;;;;;;16.73;100.00;101577.75;10436917;28;20044;-75
2022/07/31 04:05:40;;;;;;;5.40;4.10;;;;;;;16.71;100.00;101585.53;10455879;28;20047;-74
2022/07/31 04:10:41;;;;;;;4.68;4.20;;;;;;;16.71;100.00;101593.06;10461028;28;20056;-69
2022/07/31 04:15:41;;;;;;;4.20;3.53;;;;;;;16.69;100.00;101587.75;10461124;28;20044;-73
2022/07/31 04:20:41;;;;;;;7.40;3.45;;;;;;;16.68;100.00;101586.09;10461959;28;20022;-73
2022/07/31 04:25:42;;;;;;;4.68;3.90;;;;;;;16.69;100.00;101584.97;10461025;28;20044;-73
2022/07/31 04:30:42;;;;;;;5.18;3.50;;;;;;;16.69;100.00;101581.38;10461822;28;20044;-73
2022/07/31 04:35:43;;;;;;;7.78;3.67;;;;;;;16.80;100.00;101573.84;10460575;28;20067;-74
2022/07/31 04:40:43;;;;;;;4.18;3.35;;;;;;;16.88;100.00;101574.16;10442404;28;20040;-73
2022/07/31 04:45:44;;;;;;;8.02;3.60;;;;;;;16.98;100.00;101570.53;10460798;28;20033;-73
2022/07/31 04:50:45;;;;;;;7.90;3.60;;;;;;;17.14;100.00;101569.38;10443530;28;20045;-75
2022/07/31 04:56:32;;;;;;;5.78;4.00;;;;;;;17.35;100.00;101555.41;10458657;28;20037;-74
2022/07/31 05:01:06;;;;;;;5.00;3.38;;;;;;;17.60;100.00;101553.66;10459209;28;20041;-74
2022/07/31 05:06:11;;;;;;;4.22;3.22;;;;;;;17.85;100.00;101564.69;10458149;28;20037;-74
2022/07/31 05:11:23;;;;;;;5.30;3.63;;;;;;;18.07;100.00;101549.53;10456136;28;20056;-74
2022/07/31 05:16:24;;;;;;;4.90;4.10;;;;;;;18.19;100.00;101550.00;10455332;28;20049;-74
2022/07/31 05:21:29;;;;;;;6.20;4.22;;;;;;;18.22;100.00;101549.41;10458150;28;20041;-74
2022/07/31 05:26:29;;;;;;;6.32;3.97;;;;;;;18.19;100.00;101532.44;10457228;28;20075;-74
2022/07/31 05:31:30;;;;;;;8.25;4.30;;;;;;;18.22;100.00;101541.06;10440869;28;20052;-74
2022/07/31 05:36:30;;;;;;;5.93;4.68;;;;;;;18.38;100.00;101538.16;10457742;28;20108;-74
2022/07/31 05:41:32;;;;;;;5.13;4.07;;;;;;;18.63;100.00;101529.56;10457199;28;20029;-74
2022/07/31 05:46:33;;;;;;;7.45;3.63;;;;;;;18.84;100.00;101532.22;10453764;28;20037;-74
2022/07/31 05:51:34;;;;;;;8.68;4.13;;;;;;;19.01;100.00;101529.78;10456133;28;20041;-75
2022/07/31 05:56:34;;;;;;;7.75;3.70;;;;;;;19.20;100.00;101529.03;10440039;28;20083;-75
2022/07/31 06:01:35;;;;;;;6.90;3.72;;;;;;;19.38;100.00;101522.66;10456224;28;20047;-74
2022/07/31 06:06:35;;;;;;;8.00;4.05;;;;;;;19.30;100.00;101484.25;10456595;28;20048;-75
2022/07/31 06:11:36;;;;;;;6.53;3.75;;;;;;;19.56;100.00;101513.50;10432041;28;20072;-75
2022/07/31 06:16:36;;;;;;;5.38;4.05;;;;;;;19.63;100.00;101517.88;10397116;28;20083;-74
2022/07/31 06:21:37;;;;;;;4.90;3.72;;;;;;;19.50;100.00;101517.47;10414687;28;20559;-75
2022/07/31 06:26:38;;;;;;;4.95;4.07;;;;;;;19.40;100.00;101526.00;10415479;28;20030;-74
2022/07/31 06:31:38;;;;;;;8.52;4.32;;;;;;;19.33;100.00;101517.16;10415276;28;20041;-75
2022/07/31 06:36:39;;;;;;;5.55;3.63;;;;;;;19.21;100.00;101483.25;10413361;28;20033;-73
2022/07/31 06:41:48;;;;;;;5.68;4.63;;;;;;;19.38;100.00;101502.28;10454947;28;20052;-67
2022/07/31 06:46:49;;;;;;;8.88;3.92;;;;;;;19.63;100.00;101513.13;10439308;28;20174;-74
2022/07/31 06:51:49;;;;;;;10.68;4.38;;;;;;;19.80;100.00;101512.63;10437285;28;20131;-75
2022/07/31 06:56:50;;;;;;;6.22;4.18;;;;;;;20.05;100.00;101496.63;10432394;28;20037;-74
2022/07/31 07:01:50;;;;;;;5.63;4.13;;;;;;;20.28;100.00;101504.09;10431905;28;20068;-75
2022/07/31 07:06:51;;;;;;;5.35;3.60;;;;;;;20.51;100.00;101495.88;10412870;28;20038;-76
2022/07/31 07:11:51;;;;;;;5.70;3.45;;;;;;;20.73;100.00;101484.88;10424512;28;20064;-75
2022/07/31 07:16:52;;;;;;;8.75;3.33;;;;;;;20.90;100.00;101478.66;10434731;28;20218;-74
2022/07/31 07:21:52;;;;;;;6.60;3.17;;;;;;;20.80;100.00;101472.44;10433193;28;20065;-74
2022/07/31 07:26:53;;;;;;;5.40;3.15;;;;;;;21.02;100.00;101466.94;10433278;28;20040;-75
2022/07/31 07:31:53;;;;;;;3.10;2.80;;;;;;;20.94;100.00;101462.09;10432293;28;20045;-75
2022/07/31 07:36:54;;;;;;;7.55;3.22;;;;;;;20.95;100.00;101458.16;10431871;28;20224;-74
2022/07/31 07:41:54;;;;;;;5.13;2.75;;;;;;;21.05;100.00;101457.94;10455425;28;20056;-75
2022/07/31 07:46:55;;;;;;;7.53;2.72;;;;;;;21.03;100.00;101443.44;10463732;28;20481;-75
2022/07/31 07:51:55;;;;;;;5.25;2.90;;;;;;;21.21;100.00;101432.41;10464759;28;20535;-74
2022/07/31 07:56:56;;;;;;;5.68;3.17;;;;;;;21.42;100.00;101439.28;10463897;28;20045;-75
2022/07/31 08:01:57;;;;;;;12.55;2.80;;;;;;;21.59;100.00;101426.56;10449322;28;20512;-75
2022/07/31 08:06:57;;;;;;;7.95;3.20;;;;;;;21.72;100.00;101417.28;10442130;28;20041;-75
2022/07/31 08:11:58;;;;;;;7.35;3.55;;;;;;;21.65;100.00;101426.13;10442688;28;20128;-75
2022/07/31 08:16:59;;;;;;;6.80;3.30;;;;;;;21.40;100.00;101395.88;10457844;28;20049;-74
2022/07/31 08:21:59;;;;;;;8.05;3.33;;;;;;;21.79;100.00;101414.88;10464324;28;20044;-76
2022/07/31 08:32:20;;;;;;;5.03;3.42;;;;;;;22.06;100.00;101421.50;10461917;28;20065;-75
2022/07/31 08:37:20;;;;;;;4.70;3.13;;;;;;;22.21;100.00;101423.91;10461705;28;20035;-75
2022/07/31 08:42:21;;;;;;;7.47;3.92;;;;;;;22.60;97.97;101405.53;10459696;28;20053;-75
2022/07/31 08:47:21;;;;;;;5.45;3.40;;;;;;;23.24;95.40;101413.53;10461463;28;20444;-75
2022/07/31 08:52:23;;;;;;;7.95;3.35;;;;;;;23.76;93.37;101423.97;10458391;28;20029;-74
2022/07/31 08:57:25;;;;;;;6.30;3.55;;;;;;;24.05;90.18;101403.63;10460638;28;20041;-75
2022/07/31 09:02:26;;;;;;;7.65;3.83;;;;;;;24.24;89.02;101413.69;10459980;28;20041;-74
2022/07/31 09:07:26;;;;;;;5.47;3.33;;;;;;;24.06;88.12;101410.09;10455933;28;20473;-74
2022/07/31 09:12:29;;;;;;;5.80;3.70;;;;;;;23.63;87.70;101411.75;10418033;28;20501;-74
2022/07/31 09:17:31;;;;;;;6.97;3.75;;;;;;;23.64;89.67;101409.75;10421094;28;20090;-75
2022/07/31 09:22:32;;;;;;;7.53;5.10;;;;;;;23.36;92.84;101435.38;10418837;28;20033;-74
2022/07/31 09:27:33;;;;;;;5.82;3.88;;;;;;;22.92;97.21;101438.03;10417490;28;20120;-75
2022/07/31 09:32:33;;;;;;;8.18;4.22;;;;;;;22.50;100.00;101440.28;10419369;28;20041;-74
2022/07/31 09:37:34;;;;;;;9.18;4.82;;;;;;;22.17;100.00;101456.56;10419105;28;20033;-75
2022/07/31 09:42:36;;;;;;;5.82;4.80;;;;;;;21.81;100.00;101462.19;10401177;28;20535;-75
2022/07/31 09:47:37;;;;;;;10.70;6.05;;;;;;;21.53;100.00;101456.66;10418023;28;20045;-74
2022/07/31 09:52:37;;;;;;;8.68;5.43;;;;;;;21.45;100.00;101454.63;10419024;28;20057;-74
2022/07/31 09:57:38;;;;;;;9.20;6.10;;;;;;;21.47;100.00;101458.75;10416497;28;20065;-75
2022/07/31 10:02:39;;;;;;;9.93;6.28;;;;;;;21.29;100.00;101462.47;10424228;28;20438;-75
2022/07/31 10:07:39;;;;;;;10.07;7.00;;;;;;;21.32;100.00;101457.09;10457046;28;20032;-76
2022/07/31 10:12:41;;;;;;;10.82;7.05;;;;;;;21.09;100.00;101435.75;10456237;28;20041;-75
2022/07/31 10:17:43;;;;;;;13.23;8.32;;;;;;;21.08;100.00;101462.91;10441692;28;20037;-75
2022/07/31 10:22:45;;;;;;;13.05;8.77;;;;;;;20.75;100.00;101453.75;10459265;28;20033;-76
2022/07/31 10:27:47;;;;;;;10.85;8.63;;;;;;;20.52;100.00;101447.19;10439824;28;20505;-76
2022/07/31 10:32:49;;;;;;;10.48;9.25;;;;;;;20.42;100.00;101445.38;10456679;28;20041;-75
2022/07/31 10:37:55;;;;;;;17.02;10.80;;;;;;;20.33;100.00;101455.63;10456792;28;20037;-75
2022/07/31 10:43:19;;;;;;;19.33;12.45;;;;;;;20.44;100.00;101447.88;10455843;28;20041;-77
2022/07/31 10:48:19;;;;;;;15.38;12.52;;;;;;;20.70;100.00;101428.69;10456498;28;20139;-77
2022/07/31 10:53:20;;;;;;;18.40;12.60;;;;;;;21.12;100.00;101447.13;10423569;28;20044;-77
2022/07/31 10:58:20;;;;;;;15.82;11.82;;;;;;;21.16;100.00;101425.78;10435345;28;20036;-77
2022/07/31 11:03:21;;;;;;;15.75;11.98;;;;;;;21.34;100.00;101414.78;10400960;28;20044;-76
2022/07/31 11:08:21;;;;;;;17.80;9.82;;;;;;;21.50;100.00;101421.72;10432432;28;20178;-75
2022/07/31 11:13:24;;;;;;;15.50;11.45;;;;;;;21.49;100.00;101408.84;10432102;28;20033;-77
2022/07/31 11:18:24;;;;;;;13.02;11.13;;;;;;;21.29;100.00;101412.06;10432480;28;20429;-78
2022/07/31 11:23:28;;;;;;;12.68;11.30;;;;;;;21.31;100.00;101416.22;10434339;28;20045;-76
2022/07/31 11:28:28;;;;;;;15.32;11.73;;;;;;;21.41;100.00;101412.34;10432767;28;20033;-77
2022/07/31 11:33:38;;;;;;;13.45;10.60;;;;;;;21.19;100.00;101406.69;10432861;28;20637;-77
2022/07/31 11:38:42;;;;;;;14.05;10.85;;;;;;;21.07;100.00;101394.06;10434803;28;20041;-76
2022/07/31 11:43:49;;;;;;;14.60;10.27;;;;;;;20.93;100.00;101399.66;10434413;28;20106;-76
2022/07/31 11:48:49;;;;;;;11.75;9.98;;;;;;;20.84;100.00;101392.34;10434040;28;20037;-78
2022/07/31 11:53:50;;;;;;;14.52;11.43;;;;;;;20.83;100.00;101391.47;10456418;28;20037;-78
2022/07/31 11:58:55;;;;;;;12.65;11.45;;;;;;;20.91;100.00;101393.56;10453478;28;20029;-78
2022/07/31 12:03:56;;;;;;;13.50;11.75;;;;;;;20.86;100.00;101384.47;10454665;28;20072;-77
2022/07/31 12:08:57;;;;;;;14.07;11.65;;;;;;;20.73;100.00;101372.97;10452945;28;20041;-77
2022/07/31 12:13:58;;;;;;;18.50;13.18;;;;;;;20.54;100.00;101386.16;10451748;28;20071;-78
2022/07/31 12:18:58;;;;;;;17.42;13.30;;;;;;;20.27;100.00;101381.38;10452864;28;20056;-80
2022/07/31 12:23:59;;;;;;;15.80;12.48;;;;;;;20.10;100.00;101381.94;10455216;28;20045;-80
2022/07/31 12:29:00;;;;;;;17.83;14.93;;;;;;;20.03;100.00;101370.31;10460108;28;20044;-79
2022/07/31 12:34:00;;;;;;;17.92;16.10;;;;;;;19.95;100.00;101364.31;10462782;28;20044;-80
2022/07/31 12:39:03;;;;;;;24.30;17.55;;;;;;;19.95;100.00;101367.09;10448108;28;20270;-78
2022/07/31 12:44:08;;;;;;;22.52;18.50;;;;;;;19.90;100.00;101361.59;10439789;28;20059;-79
2022/07/31 12:49:09;;;;;;;22.83;20.20;;;;;;;19.74;100.00;101363.84;10457596;28;20057;-82
2022/07/31 12:54:09;;;;;;;25.27;20.80;;;;;;;19.62;100.00;101360.66;10419478;28;20037;-82
2022/07/31 12:59:10;;;;;;;27.20;23.13;;;;;;;19.50;100.00;101361.09;10429841;28;20053;-82
2022/07/31 13:04:10;;;;;;;35.35;25.13;;;;;;;19.17;100.00;101362.16;10435262;28;20041;-86
2022/07/31 13:09:11;;;;;;;25.50;21.05;;;;;;;18.90;100.00;101353.31;10434535;28;20036;-82
2022/07/31 13:14:11;;;;;;;28.10;20.75;;;;;;;18.66;100.00;101350.50;10440410;28;20140;-79
2022/07/31 13:19:12;;;;;;;33.13;26.23;;;;;;;18.64;100.00;101319.28;10434821;28;20038;-80
2022/07/31 13:24:13;;;;;;;42.70;30.00;;;;;;;18.82;100.00;101319.66;10430064;28;20038;-81
2022/07/31 13:29:14;;;;;;;43.08;31.70;;;;;;;18.93;100.00;101319.25;10420639;28;20033;-76
2022/07/31 13:34:14;;;;;;;46.17;35.33;;;;;;;19.08;100.00;101326.56;10434037;28;20105;-75
2022/07/31 13:39:15;;;;;;;48.33;34.15;;;;;;;19.00;100.00;101309.66;10425527;28;20061;-77
2022/07/31 13:44:15;;;;;;;48.05;36.05;;;;;;;19.26;100.00;101312.88;10432517;28;20350;-77
2022/07/31 13:49:15;;;;;;;48.85;35.95;;;;;;;19.25;100.00;101322.41;10438858;28;20037;-75
2022/07/31 13:54:16;;;;;;;47.30;37.00;;;;;;;19.08;100.00;101308.97;10427667;28;20079;-76
2022/07/31 13:59:17;;;;;;;52.72;38.30;;;;;;;19.05;100.00;101302.03;10428613;28;20053;-78
2022/07/31 14:04:18;;;;;;;51.58;39.00;;;;;;;18.95;100.00;101286.28;10435073;28;20045;-77
2022/07/31 14:09:18;;;;;;;53.75;39.88;;;;;;;18.86;100.00;101301.19;10429642;28;20037;-77
2022/07/31 14:14:19;;;;;;;50.03;37.47;;;;;;;18.93;100.00;101287.69;10431362;28;20033;-79
2022/07/31 14:19:19;;;;;;;60.42;41.85;;;;;;;18.90;100.00;101283.56;10418331;28;20060;-77
2022/07/31 14:24:20;;;;;;;55.72;38.65;;;;;;;18.83;100.00;101287.84;10416256;28;20036;-80
2022/07/31 14:29:20;;;;;;;64.60;39.20;;;;;;;18.78;100.00;101290.69;10414971;28;20029;-75
2022/07/31 14:34:21;;;;;;;54.75;35.67;;;;;;;18.80;100.00;101299.59;10414839;28;20052;-87
2022/07/31 14:39:21;;;;;;;57.33;37.88;;;;;;;18.75;100.00;101308.84;10416101;28;20085;-87
2022/07/31 14:44:22;;;;;;;46.08;28.20;;;;;;;18.74;100.00;101309.97;10415778;28;20034;-89
2022/07/31 14:49:22;;;;;;;48.80;30.88;;;;;;;18.90;100.00;101308.66;10444076;28;20397;-90
2022/07/31 14:54:23;;;;;;;40.53;28.85;;;;;;;19.17;100.00;101315.53;10415821;28;20038;-83
2022/07/31 14:59:23;;;;;;;39.97;24.73;;;;;;;19.28;100.00;101308.66;10414625;28;20037;-81
2022/07/31 15:04:24;;;;;;;34.85;24.45;;;;;;;19.20;100.00;101303.75;10450638;28;20037;-83
2022/07/31 15:09:24;;;;;;;34.05;21.80;;;;;;;19.37;100.00;101303.25;10456853;28;20044;-85
2022/07/31 15:14:25;;;;;;;22.45;17.35;;;;;;;19.41;100.00;101292.28;10458037;28;20116;-85
2022/07/31 15:19:25;;;;;;;25.27;17.23;;;;;;;19.72;100.00;101289.81;10437468;28;20037;-84
2022/07/31 15:24:25;;;;;;;16.95;10.32;;;;;;;19.57;100.00;101299.28;10433712;28;20056;-83
2022/07/31 15:29:26;;;;;;;17.85;11.45;;;;;;;19.61;100.00;101291.94;10434185;28;20037;-86
2022/07/31 15:34:26;;;;;;;12.70;8.43;;;;;;;19.88;100.00;101296.78;10434499;28;20068;-82
2022/07/31 15:39:27;;;;;;;9.57;6.78;;;;;;;19.98;100.00;101294.97;10435003;28;20041;-82
2022/07/31 15:44:27;;;;;;;10.40;7.78;;;;;;;20.15;100.00;101281.22;10420110;28;20029;-80
2022/07/31 15:49:28;;;;;;;9.48;7.18;;;;;;;20.56;100.00;101288.78;10415872;28;20026;-79
2022/07/31 15:54:28;;;;;;;14.57;6.88;;;;;;;20.79;100.00;101263.72;10449754;28;20033;-79
2022/07/31 15:59:29;;;;;;;10.68;5.78;;;;;;;21.12;100.00;101261.53;10442673;28;20055;-80
2022/07/31 16:04:29;;;;;;;10.23;6.03;;;;;;;21.10;100.00;101259.03;10444183;28;20038;-80
2022/07/31 16:09:30;;;;;;;10.00;5.80;;;;;;;20.98;100.00;101261.59;10439673;28;20079;-80
2022/07/31 16:14:30;;;;;;;6.18;4.22;;;;;;;20.81;100.00;101250.22;10437394;28;20060;-69
2022/07/31 16:19:31;;;;;;;6.95;4.65;;;;;;;20.78;100.00;101253.66;10444455;28;20037;-78
2022/07/31 16:24:31;;;;;;;9.13;5.40;;;;;;;20.81;100.00;101250.22;10420772;28;20041;-81
2022/07/31 16:29:32;;;;;;;8.02;5.38;;;;;;;20.69;100.00;101242.38;10421695;28;20036;-81
2022/07/31 16:34:32;;;;;;;9.38;5.57;;;;;;;20.74;100.00;101243.09;10421566;28;20033;-81
2022/07/31 16:39:32;;;;;;;7.70;5.38;;;;;;;20.53;100.00;101245.50;10420486;28;20053;-83
2022/07/31 16:44:35;;;;;;;8.32;5.28;;;;;;;20.49;100.00;101243.63;10439434;28;20029;-83
2022/07/31 16:49:36;;;;;;;11.45;5.68;;;;;;;20.51;100.00;101252.53;10461241;28;20199;-82
2022/07/31 16:54:37;;;;;;;11.82;6.13;;;;;;;20.34;100.00;101242.81;10459252;28;20041;-83
2022/07/31 16:59:38;;;;;;;11.73;5.50;;;;;;;20.35;100.00;101244.47;10475829;28;20086;-81
2022/07/31 17:04:38;;;;;;;6.68;5.10;;;;;;;20.32;100.00;101233.09;10459429;28;20392;-84
2022/07/31 17:09:38;;;;;;;4.78;4.35;;;;;;;20.57;100.00;101234.50;10458266;28;20448;-83
2022/07/31 17:14:42;;;;;;;6.03;3.65;;;;;;;20.40;100.00;101237.94;10473613;28;20036;-81
2022/07/31 17:19:42;;;;;;;3.58;3.28;;;;;;;20.18;100.00;101241.47;10474599;28;20447;-85
2022/07/31 17:24:43;;;;;;;4.53;2.85;;;;;;;19.92;100.00;101225.19;10459879;28;20036;-83
2022/07/31 17:29:43;;;;;;;6.05;3.60;;;;;;;19.78;100.00;101238.31;10459887;28;20559;-81
2022/07/31 17:34:45;;;;;;;8.38;3.88;;;;;;;19.76;100.00;101248.97;10456622;28;20079;-78
2022/07/31 17:39:45;;;;;;;5.22;3.70;;;;;;;19.74;100.00;101257.69;10459971;28;20108;-70
2022/07/31 17:44:46;;;;;;;8.90;4.13;;;;;;;20.01;100.00;101258.00;10458811;28;20040;-79
2022/07/31 17:49:46;;;;;;;5.18;3.63;;;;;;;20.05;100.00;101256.25;10459679;28;20048;-78
2022/07/31 17:54:47;;;;;;;8.45;3.78;;;;;;;20.00;100.00;101247.97;10473990;28;20354;-80
2022/07/31 17:59:48;;;;;;;4.63;3.20;;;;;;;19.77;100.00;101261.00;10457961;28;20048;-78
2022/07/31 18:04:48;;;;;;;3.88;2.38;;;;;;;19.47;100.00;101240.78;10440731;28;20124;-78
2022/07/31 18:09:49;;;;;;;3.15;2.20;;;;;;;19.41;100.00;101250.41;10458186;28;20236;-79
2022/07/31 18:14:49;;;;;;;4.25;2.40;;;;;;;19.39;100.00;101261.03;10433215;28;20112;-78
2022/07/31 18:19:50;;;;;;;4.53;2.67;;;;;;;19.36;100.00;101262.47;10458456;28;20044;-79
2022/07/31 18:24:50;;;;;;;5.60;2.60;;;;;;;19.28;100.00;101265.97;10457829;28;20041;-77
2022/07/31 18:29:51;;;;;;;5.45;2.70;;;;;;;19.25;100.00;101263.78;10440191;28;20044;-77
2022/07/31 18:34:51;;;;;;;6.60;3.05;;;;;;;19.22;100.00;101269.97;10426192;28;20453;-78
2022/07/31 18:39:52;;;;;;;5.22;2.92;;;;;;;18.99;100.00;101241.03;10444160;28;20473;-74
2022/07/31 18:44:56;;;;;;;5.15;3.05;;;;;;;19.06;100.00;101274.94;10455833;28;20532;-78
2022/07/31 18:49:56;;;;;;;8.07;3.47;;;;;;;19.03;100.00;101265.22;10439569;28;20052;-80
2022/07/31 18:54:57;;;;;;;5.15;3.25;;;;;;;19.05;100.00;101279.69;10457009;28;20036;-79
2022/07/31 18:59:57;;;;;;;5.25;4.00;;;;;;;19.02;100.00;101287.88;10421500;28;20036;-78
2022/07/31 19:04:58;;;;;;;7.75;3.70;;;;;;;18.99;100.00;101285.66;10454610;28;20075;-78
2022/07/31 19:09:58;;;;;;;5.05;4.55;;;;;;;18.93;100.00;101287.69;10455830;28;20052;-79
2022/07/31 19:14:59;;;;;;;8.82;3.90;;;;;;;18.94;100.00;101297.75;10448683;28;20120;-78
2022/07/31 19:19:59;;;;;;;8.30;4.50;;;;;;;18.96;100.00;101298.28;10442799;28;20083;-81
2022/07/31 19:25:00;;;;;;;6.38;3.95;;;;;;;18.85;100.00;101293.94;10448595;28;20055;-82
2022/07/31 19:30:00;;;;;;;16.33;4.50;;;;;;;18.89;100.00;101306.16;10396668;28;20072;-80
2022/07/31 19:35:01;;;;;;;10.45;4.40;;;;;;;18.90;100.00;101316.22;10415558;28;20030;-84
2022/07/31 19:40:01;;;;;;;7.05;4.40;;;;;;;18.85;100.00;101319.91;10421779;28;20037;-77
2022/07/31 19:45:02;;;;;;;4.60;3.17;;;;;;;18.67;100.00;101331.81;10421415;28;20053;-86
2022/07/31 19:50:03;;;;;;;3.97;2.55;;;;;;;18.49;100.00;101327.84;10423321;28;20083;-83
2022/07/31 19:55:05;;;;;;;4.68;2.83;;;;;;;18.37;100.00;101335.78;10447698;28;20029;-83
2022/07/31 20:00:07;;;;;;;5.88;2.72;;;;;;;18.28;100.00;101330.84;10422287;28;20029;-84
2022/07/31 20:05:09;;;;;;;6.43;3.17;;;;;;;18.33;100.00;101341.97;10412285;28;20040;-83
2022/07/31 20:10:09;;;;;;;8.65;3.85;;;;;;;18.30;100.00;101345.34;10416915;28;20049;-83
2022/07/31 20:15:10;;;;;;;10.10;3.97;;;;;;;18.17;100.00;101336.81;10416206;28;20132;-84
2022/07/31 20:20:11;;;;;;;7.85;4.30;;;;;;;18.07;100.00;101348.94;10450409;28;20033;-86
2022/07/31 20:25:12;;;;;;;9.20;4.65;;;;;;;18.01;100.00;101353.72;10452272;28;20148;-84
2022/07/31 20:30:13;;;;;;;10.35;4.80;;;;;;;18.08;100.00;101362.53;10453924;28;20101;-85
2022/07/31 20:35:13;;;;;;;11.02;4.68;;;;;;;18.09;100.00;101363.41;10456331;28;20049;-85
2022/07/31 20:40:14;;;;;;;10.32;5.95;;;;;;;17.72;100.00;101318.28;10453228;28;20079;-86
2022/07/31 20:45:14;;;;;;;14.90;6.38;;;;;;;18.08;100.00;101361.72;10456117;28;20064;-85
2022/07/31 20:50:15;;;;;;;12.10;6.32;;;;;;;18.10;100.00;101365.88;10404023;28;20041;-83
2022/07/31 20:55:16;;;;;;;7.85;2.17;;;;;;;17.90;100.00;101361.34;10462577;28;20056;-85
2022/07/31 21:00:16;;;;;;;4.28;1.45;;;;;;;17.82;100.00;101372.22;10448970;28;20038;-84
2022/07/31 21:05:17;;;;;;;2.25;1.40;;;;;;;17.79;100.00;101370.84;10426076;28;20037;-83
2022/07/31 21:10:17;;;;;;;2.47;1.45;;;;;;;17.71;100.00;101357.53;10416025;28;20694;-84
2022/07/31 21:15:18;;;;;;;5.18;1.73;;;;;;;17.62;100.00;101353.72;10417952;28;20148;-83
2022/07/31 21:20:19;;;;;;;5.63;1.65;;;;;;;17.73;100.00;101383.16;10399969;28;20049;-82
2022/07/31 21:25:20;;;;;;;6.13;1.95;;;;;;;17.71;100.00;101388.19;10451852;28;20302;-83
2022/07/31 21:30:20;;;;;;;3.00;1.95;;;;;;;17.67;100.00;101373.16;10422589;28;20116;-81
2022/07/31 21:35:21;;;;;;;5.07;1.80;;;;;;;17.69;100.00;101388.50;10455044;28;20045;-82
2022/07/31 21:40:22;;;;;;;4.68;2.05;;;;;;;17.68;100.00;101397.13;10438378;28;20135;-83
2022/07/31 21:45:22;;;;;;;5.35;2.30;;;;;;;17.58;100.00;101383.28;10455659;28;20521;-83
2022/07/31 21:50:23;;;;;;;5.70;2.80;;;;;;;17.68;100.00;101409.09;10454699;28;20393;-81
2022/07/31 21:55:23;;;;;;;5.40;2.30;;;;;;;17.66;100.00;101413.28;10471290;28;20514;-81
2022/07/31 22:00:24;;;;;;;3.72;2.50;;;;;;;17.71;100.00;101427.16;10457508;28;20044;-81
2022/07/31 22:10:44;;;;;;;7.97;3.05;;;;;;;17.71;100.00;101425.22;10445423;28;20041;-81
2022/07/31 22:15:44;;;;;;;6.57;3.45;;;;;;;17.72;100.00;101431.63;10440270;28;20037;-82
2022/07/31 22:20:46;;;;;;;8.40;3.90;;;;;;;17.68;100.00;101428.59;10456136;28;20337;-82
2022/07/31 22:25:47;;;;;;;12.57;5.10;;;;;;;17.70;100.00;101426.34;10440179;28;20589;-84
2022/07/31 22:30:48;;;;;;;11.68;6.15;;;;;;;17.71;100.00;101435.50;10440771;28;20064;-82
2022/07/31 22:35:51;;;;;;;14.30;6.90;;;;;;;17.71;100.00;101436.38;10442048;28;20100;-81
2022/07/31 22:40:51;;;;;;;15.73;8.73;;;;;;;17.66;100.00;101430.00;10452445;28;20063;-80
2022/07/31 22:45:52;;;;;;;23.98;9.43;;;;;;;17.71;100.00;101441.09;10420969;28;20093;-82
2022/07/31 22:50:54;;;;;;;19.83;9.20;;;;;;;17.70;100.00;101439.44;10456275;28;20096;-82